sensor_id;sensor_type;location;lat;lon;timestamp;P1;durP1;ratioP1;P2;durP2;ratioP2
74375;SDS011;62812;55.188;61.302;2022-08-25T00:01:39;13.10;;;7.10;;
74375;SDS011;62812;55.188;61.302;2022-08-25T00:04:09;9.88;;;7.07;;
74375;SDS011;62812;55.188;61.302;2022-08-25T00:06:37;11.35;;;6.57;;
74375;SDS011;62812;55.188;61.302;2022-08-25T00:09:04;11.35;;;6.88;;
74375;SDS011;62812;55.188;61.302;2022-08-25T00:11:33;10.05;;;6.88;;
74375;SDS011;62812;55.188;61.302;2022-08-25T00:14:04;14.32;;;7.30;;
74375;SDS011;62812;55.188;61.302;2022-08-25T00:16:32;11.13;;;7.30;;
74375;SDS011;62812;55.188;61.302;2022-08-25T00:19:03;10.02;;;6.80;;
74375;SDS011;62812;55.188;61.302;2022-08-25T00:21:30;11.02;;;7.25;;
74375;SDS011;62812;55.188;61.302;2022-08-25T00:23:57;10.05;;;6.25;;
74375;SDS011;62812;55.188;61.302;2022-08-25T00:26:24;11.13;;;7.18;;
74375;SDS011;62812;55.188;61.302;2022-08-25T00:28:51;11.43;;;6.95;;
74375;SDS011;62812;55.188;61.302;2022-08-25T00:31:20;12.45;;;7.82;;
74375;SDS011;62812;55.188;61.302;2022-08-25T00:33:48;11.85;;;6.70;;
74375;SDS011;62812;55.188;61.302;2022-08-25T00:36:16;10.93;;;6.93;;
74375;SDS011;62812;55.188;61.302;2022-08-25T00:38:44;10.20;;;6.80;;
74375;SDS011;62812;55.188;61.302;2022-08-25T00:41:13;10.70;;;7.03;;
74375;SDS011;62812;55.188;61.302;2022-08-25T00:43:43;12.65;;;7.22;;
74375;SDS011;62812;55.188;61.302;2022-08-25T00:46:13;11.38;;;7.57;;
74375;SDS011;62812;55.188;61.302;2022-08-25T00:48:45;12.48;;;7.75;;
74375;SDS011;62812;55.188;61.302;2022-08-25T00:51:16;11.13;;;7.40;;
74375;SDS011;62812;55.188;61.302;2022-08-25T00:53:48;10.07;;;6.80;;
74375;SDS011;62812;55.188;61.302;2022-08-25T00:56:15;13.90;;;7.45;;
74375;SDS011;62812;55.188;61.302;2022-08-25T00:58:43;10.82;;;7.10;;
74375;SDS011;62812;55.188;61.302;2022-08-25T01:01:10;10.82;;;7.13;;
74375;SDS011;62812;55.188;61.302;2022-08-25T01:03:36;11.55;;;7.88;;
74375;SDS011;62812;55.188;61.302;2022-08-25T01:06:05;12.20;;;7.35;;
74375;SDS011;62812;55.188;61.302;2022-08-25T01:08:32;11.93;;;7.68;;
74375;SDS011;62812;55.188;61.302;2022-08-25T01:11:01;12.02;;;7.78;;
74375;SDS011;62812;55.188;61.302;2022-08-25T01:13:30;12.27;;;7.47;;
74375;SDS011;62812;55.188;61.302;2022-08-25T01:15:59;12.70;;;7.90;;
74375;SDS011;62812;55.188;61.302;2022-08-25T01:18:26;12.30;;;8.05;;
74375;SDS011;62812;55.188;61.302;2022-08-25T01:20:55;13.10;;;7.85;;
74375;SDS011;62812;55.188;61.302;2022-08-25T01:23:23;13.70;;;7.63;;
74375;SDS011;62812;55.188;61.302;2022-08-25T01:25:52;11.38;;;7.35;;
74375;SDS011;62812;55.188;61.302;2022-08-25T01:28:24;15.75;;;8.25;;
74375;SDS011;62812;55.188;61.302;2022-08-25T01:30:51;13.68;;;7.88;;
74375;SDS011;62812;55.188;61.302;2022-08-25T01:33:18;11.63;;;7.75;;
74375;SDS011;62812;55.188;61.302;2022-08-25T01:35:45;12.55;;;7.85;;
74375;SDS011;62812;55.188;61.302;2022-08-25T01:38:13;13.60;;;8.20;;
74375;SDS011;62812;55.188;61.302;2022-08-25T01:43:36;14.32;;;8.23;;
74375;SDS011;62812;55.188;61.302;2022-08-25T01:46:03;14.50;;;7.95;;
74375;SDS011;62812;55.188;61.302;2022-08-25T01:48:30;14.45;;;8.30;;
74375;SDS011;62812;55.188;61.302;2022-08-25T01:50:57;12.77;;;7.70;;
74375;SDS011;62812;55.188;61.302;2022-08-25T01:53:26;11.45;;;8.23;;
74375;SDS011;62812;55.188;61.302;2022-08-25T01:55:54;12.40;;;8.60;;
74375;SDS011;62812;55.188;61.302;2022-08-25T01:58:28;13.38;;;8.10;;
74375;SDS011;62812;55.188;61.302;2022-08-25T02:00:56;12.88;;;7.60;;
74375;SDS011;62812;55.188;61.302;2022-08-25T02:03:26;13.10;;;7.78;;
74375;SDS011;62812;55.188;61.302;2022-08-25T02:05:55;14.02;;;8.38;;
74375;SDS011;62812;55.188;61.302;2022-08-25T02:08:22;13.27;;;8.45;;
74375;SDS011;62812;55.188;61.302;2022-08-25T02:10:51;12.35;;;7.88;;
74375;SDS011;62812;55.188;61.302;2022-08-25T02:13:20;13.20;;;8.00;;
74375;SDS011;62812;55.188;61.302;2022-08-25T02:15:48;12.35;;;8.35;;
74375;SDS011;62812;55.188;61.302;2022-08-25T02:18:17;14.05;;;8.52;;
74375;SDS011;62812;55.188;61.302;2022-08-25T02:20:45;10.77;;;7.47;;
74375;SDS011;62812;55.188;61.302;2022-08-25T02:23:12;12.50;;;8.30;;
74375;SDS011;62812;55.188;61.302;2022-08-25T02:25:39;12.07;;;8.23;;
74375;SDS011;62812;55.188;61.302;2022-08-25T02:28:10;15.50;;;8.32;;
74375;SDS011;62812;55.188;61.302;2022-08-25T02:30:37;12.30;;;7.63;;
74375;SDS011;62812;55.188;61.302;2022-08-25T02:33:05;14.00;;;8.18;;
74375;SDS011;62812;55.188;61.302;2022-08-25T02:35:32;13.25;;;7.55;;
74375;SDS011;62812;55.188;61.302;2022-08-25T02:37:58;12.90;;;8.35;;
74375;SDS011;62812;55.188;61.302;2022-08-25T02:40:25;12.88;;;8.40;;
74375;SDS011;62812;55.188;61.302;2022-08-25T02:42:52;14.18;;;8.77;;
74375;SDS011;62812;55.188;61.302;2022-08-25T02:45:21;14.45;;;7.80;;
74375;SDS011;62812;55.188;61.302;2022-08-25T02:47:48;12.48;;;7.68;;
74375;SDS011;62812;55.188;61.302;2022-08-25T02:50:18;12.95;;;8.05;;
74375;SDS011;62812;55.188;61.302;2022-08-25T02:52:45;12.05;;;8.32;;
74375;SDS011;62812;55.188;61.302;2022-08-25T02:55:15;12.50;;;8.15;;
74375;SDS011;62812;55.188;61.302;2022-08-25T02:57:42;14.18;;;8.20;;
74375;SDS011;62812;55.188;61.302;2022-08-25T03:00:09;13.27;;;8.20;;
74375;SDS011;62812;55.188;61.302;2022-08-25T03:02:39;11.35;;;7.78;;
74375;SDS011;62812;55.188;61.302;2022-08-25T03:05:07;11.05;;;8.32;;
74375;SDS011;62812;55.188;61.302;2022-08-25T03:10:50;12.05;;;7.72;;
74375;SDS011;62812;55.188;61.302;2022-08-25T03:14:07;12.98;;;8.63;;
74375;SDS011;62812;55.188;61.302;2022-08-25T03:17:19;12.05;;;8.10;;
74375;SDS011;62812;55.188;61.302;2022-08-25T03:19:48;14.02;;;7.53;;
74375;SDS011;62812;55.188;61.302;2022-08-25T03:22:21;12.05;;;7.50;;
74375;SDS011;62812;55.188;61.302;2022-08-25T03:24:52;12.90;;;8.82;;
74375;SDS011;62812;55.188;61.302;2022-08-25T03:27:56;16.70;;;8.80;;
74375;SDS011;62812;55.188;61.302;2022-08-25T03:30:23;11.43;;;8.02;;
74375;SDS011;62812;55.188;61.302;2022-08-25T03:32:51;14.70;;;9.20;;
74375;SDS011;62812;55.188;61.302;2022-08-25T03:35:19;14.85;;;8.13;;
74375;SDS011;62812;55.188;61.302;2022-08-25T03:37:46;17.42;;;8.30;;
74375;SDS011;62812;55.188;61.302;2022-08-25T03:40:13;15.00;;;8.35;;
74375;SDS011;62812;55.188;61.302;2022-08-25T03:42:42;13.30;;;8.82;;
74375;SDS011;62812;55.188;61.302;2022-08-25T03:45:10;14.95;;;8.77;;
74375;SDS011;62812;55.188;61.302;2022-08-25T03:47:39;12.52;;;8.75;;
74375;SDS011;62812;55.188;61.302;2022-08-25T03:50:06;14.65;;;8.82;;
74375;SDS011;62812;55.188;61.302;2022-08-25T03:52:36;13.02;;;8.68;;
74375;SDS011;62812;55.188;61.302;2022-08-25T03:55:04;11.75;;;7.97;;
74375;SDS011;62812;55.188;61.302;2022-08-25T03:57:32;16.30;;;8.85;;
74375;SDS011;62812;55.188;61.302;2022-08-25T03:59:59;12.43;;;8.13;;
74375;SDS011;62812;55.188;61.302;2022-08-25T04:02:25;11.98;;;8.55;;
74375;SDS011;62812;55.188;61.302;2022-08-25T04:04:52;13.07;;;8.68;;
74375;SDS011;62812;55.188;61.302;2022-08-25T04:07:18;12.05;;;8.52;;
74375;SDS011;62812;55.188;61.302;2022-08-25T04:09:46;16.83;;;8.90;;
74375;SDS011;62812;55.188;61.302;2022-08-25T04:12:15;12.82;;;8.70;;
74375;SDS011;62812;55.188;61.302;2022-08-25T04:14:41;15.75;;;9.95;;
74375;SDS011;62812;55.188;61.302;2022-08-25T04:17:08;14.43;;;9.25;;
74375;SDS011;62812;55.188;61.302;2022-08-25T04:19:34;15.82;;;9.00;;
74375;SDS011;62812;55.188;61.302;2022-08-25T04:22:01;14.02;;;9.15;;
74375;SDS011;62812;55.188;61.302;2022-08-25T04:24:27;16.05;;;9.38;;
74375;SDS011;62812;55.188;61.302;2022-08-25T04:26:55;13.27;;;9.77;;
74375;SDS011;62812;55.188;61.302;2022-08-25T04:29:22;13.18;;;9.52;;
74375;SDS011;62812;55.188;61.302;2022-08-25T04:31:50;14.38;;;9.32;;
74375;SDS011;62812;55.188;61.302;2022-08-25T04:34:18;15.68;;;9.60;;
74375;SDS011;62812;55.188;61.302;2022-08-25T04:36:47;15.30;;;9.52;;
74375;SDS011;62812;55.188;61.302;2022-08-25T04:39:15;18.58;;;10.30;;
74375;SDS011;62812;55.188;61.302;2022-08-25T04:41:44;18.45;;;9.90;;
74375;SDS011;62812;55.188;61.302;2022-08-25T04:44:12;14.27;;;9.45;;
74375;SDS011;62812;55.188;61.302;2022-08-25T04:46:39;17.55;;;9.45;;
74375;SDS011;62812;55.188;61.302;2022-08-25T04:49:06;16.27;;;9.50;;
74375;SDS011;62812;55.188;61.302;2022-08-25T04:51:35;15.43;;;9.45;;
74375;SDS011;62812;55.188;61.302;2022-08-25T04:54:05;15.23;;;10.18;;
74375;SDS011;62812;55.188;61.302;2022-08-25T04:56:33;20.08;;;10.38;;
74375;SDS011;62812;55.188;61.302;2022-08-25T04:59:00;16.88;;;9.20;;
74375;SDS011;62812;55.188;61.302;2022-08-25T05:01:31;15.13;;;9.50;;
74375;SDS011;62812;55.188;61.302;2022-08-25T05:03:59;16.23;;;10.10;;
74375;SDS011;62812;55.188;61.302;2022-08-25T05:06:27;17.23;;;10.40;;
74375;SDS011;62812;55.188;61.302;2022-08-25T05:08:54;15.65;;;9.77;;
74375;SDS011;62812;55.188;61.302;2022-08-25T05:11:22;13.63;;;9.23;;
74375;SDS011;62812;55.188;61.302;2022-08-25T05:13:51;15.80;;;10.27;;
74375;SDS011;62812;55.188;61.302;2022-08-25T05:16:19;17.92;;;9.82;;
74375;SDS011;62812;55.188;61.302;2022-08-25T05:18:48;14.63;;;10.07;;
74375;SDS011;62812;55.188;61.302;2022-08-25T05:21:16;14.98;;;9.73;;
74375;SDS011;62812;55.188;61.302;2022-08-25T05:23:44;14.02;;;9.38;;
74375;SDS011;62812;55.188;61.302;2022-08-25T05:26:12;14.18;;;10.32;;
74375;SDS011;62812;55.188;61.302;2022-08-25T05:31:08;18.23;;;10.15;;
74375;SDS011;62812;55.188;61.302;2022-08-25T05:33:35;15.15;;;9.63;;
74375;SDS011;62812;55.188;61.302;2022-08-25T05:36:04;19.50;;;9.60;;
74375;SDS011;62812;55.188;61.302;2022-08-25T05:38:31;13.75;;;9.43;;
74375;SDS011;62812;55.188;61.302;2022-08-25T05:40:57;16.27;;;9.40;;
74375;SDS011;62812;55.188;61.302;2022-08-25T05:43:24;13.60;;;10.05;;
74375;SDS011;62812;55.188;61.302;2022-08-25T05:45:52;15.73;;;9.30;;
74375;SDS011;62812;55.188;61.302;2022-08-25T05:48:19;16.42;;;9.00;;
74375;SDS011;62812;55.188;61.302;2022-08-25T05:50:49;14.77;;;9.60;;
74375;SDS011;62812;55.188;61.302;2022-08-25T05:53:17;15.55;;;10.10;;
74375;SDS011;62812;55.188;61.302;2022-08-25T05:55:44;16.42;;;9.13;;
74375;SDS011;62812;55.188;61.302;2022-08-25T05:58:10;15.00;;;9.90;;
74375;SDS011;62812;55.188;61.302;2022-08-25T06:00:37;18.77;;;9.43;;
74375;SDS011;62812;55.188;61.302;2022-08-25T06:03:03;13.88;;;9.55;;
74375;SDS011;62812;55.188;61.302;2022-08-25T06:05:32;14.98;;;9.40;;
74375;SDS011;62812;55.188;61.302;2022-08-25T06:07:58;13.85;;;8.55;;
74375;SDS011;62812;55.188;61.302;2022-08-25T06:10:26;18.45;;;9.50;;
74375;SDS011;62812;55.188;61.302;2022-08-25T06:12:53;13.68;;;9.70;;
74375;SDS011;62812;55.188;61.302;2022-08-25T06:15:21;16.55;;;9.73;;
74375;SDS011;62812;55.188;61.302;2022-08-25T06:17:49;16.80;;;9.77;;
74375;SDS011;62812;55.188;61.302;2022-08-25T06:20:17;14.30;;;9.13;;
74375;SDS011;62812;55.188;61.302;2022-08-25T06:22:45;12.02;;;9.43;;
74375;SDS011;62812;55.188;61.302;2022-08-25T06:25:13;13.43;;;9.25;;
74375;SDS011;62812;55.188;61.302;2022-08-25T06:27:42;15.13;;;9.32;;
74375;SDS011;62812;55.188;61.302;2022-08-25T06:30:09;13.05;;;9.63;;
74375;SDS011;62812;55.188;61.302;2022-08-25T06:32:38;17.98;;;9.70;;
74375;SDS011;62812;55.188;61.302;2022-08-25T06:35:06;16.92;;;9.30;;
74375;SDS011;62812;55.188;61.302;2022-08-25T06:37:35;14.20;;;9.10;;
74375;SDS011;62812;55.188;61.302;2022-08-25T06:40:02;13.18;;;8.75;;
74375;SDS011;62812;55.188;61.302;2022-08-25T06:42:30;14.73;;;9.75;;
74375;SDS011;62812;55.188;61.302;2022-08-25T06:44:58;11.80;;;8.13;;
74375;SDS011;62812;55.188;61.302;2022-08-25T06:47:25;15.50;;;9.25;;
74375;SDS011;62812;55.188;61.302;2022-08-25T06:49:51;15.73;;;8.85;;
74375;SDS011;62812;55.188;61.302;2022-08-25T06:52:18;10.93;;;8.88;;
74375;SDS011;62812;55.188;61.302;2022-08-25T06:54:44;13.90;;;8.38;;
74375;SDS011;62812;55.188;61.302;2022-08-25T06:57:11;12.45;;;8.57;;
74375;SDS011;62812;55.188;61.302;2022-08-25T06:59:38;14.00;;;8.80;;
74375;SDS011;62812;55.188;61.302;2022-08-25T07:02:06;13.55;;;8.90;;
74375;SDS011;62812;55.188;61.302;2022-08-25T07:04:33;10.93;;;8.18;;
74375;SDS011;62812;55.188;61.302;2022-08-25T07:07:00;14.13;;;8.30;;
74375;SDS011;62812;55.188;61.302;2022-08-25T07:09:26;17.40;;;8.18;;
74375;SDS011;62812;55.188;61.302;2022-08-25T07:11:54;13.80;;;8.48;;
74375;SDS011;62812;55.188;61.302;2022-08-25T07:14:21;11.32;;;8.40;;
74375;SDS011;62812;55.188;61.302;2022-08-25T07:16:49;16.45;;;8.73;;
74375;SDS011;62812;55.188;61.302;2022-08-25T07:19:17;11.00;;;7.63;;
74375;SDS011;62812;55.188;61.302;2022-08-25T07:21:48;11.10;;;7.22;;
74375;SDS011;62812;55.188;61.302;2022-08-25T07:24:15;12.70;;;7.32;;
74375;SDS011;62812;55.188;61.302;2022-08-25T07:26:42;13.15;;;7.35;;
74375;SDS011;62812;55.188;61.302;2022-08-25T07:29:12;12.63;;;7.75;;
74375;SDS011;62812;55.188;61.302;2022-08-25T07:31:40;16.23;;;7.72;;
74375;SDS011;62812;55.188;61.302;2022-08-25T07:34:07;10.98;;;7.38;;
74375;SDS011;62812;55.188;61.302;2022-08-25T07:36:54;10.27;;;7.55;;
74375;SDS011;62812;55.188;61.302;2022-08-25T07:41:49;12.18;;;7.78;;
74375;SDS011;62812;55.188;61.302;2022-08-25T07:44:16;12.80;;;8.15;;
74375;SDS011;62812;55.188;61.302;2022-08-25T07:46:42;12.55;;;7.55;;
74375;SDS011;62812;55.188;61.302;2022-08-25T07:49:09;12.30;;;6.55;;
74375;SDS011;62812;55.188;61.302;2022-08-25T07:51:35;16.13;;;6.90;;
74375;SDS011;62812;55.188;61.302;2022-08-25T07:54:05;9.20;;;6.88;;
74375;SDS011;62812;55.188;61.302;2022-08-25T07:56:32;11.65;;;6.25;;
74375;SDS011;62812;55.188;61.302;2022-08-25T07:58:58;10.55;;;6.10;;
74375;SDS011;62812;55.188;61.302;2022-08-25T08:01:25;9.35;;;6.28;;
74375;SDS011;62812;55.188;61.302;2022-08-25T08:03:51;9.18;;;5.93;;
74375;SDS011;62812;55.188;61.302;2022-08-25T08:06:19;10.73;;;5.97;;
74375;SDS011;62812;55.188;61.302;2022-08-25T08:08:48;14.90;;;6.35;;
74375;SDS011;62812;55.188;61.302;2022-08-25T08:11:18;11.40;;;5.82;;
74375;SDS011;62812;55.188;61.302;2022-08-25T08:13:47;9.90;;;6.13;;
74375;SDS011;62812;55.188;61.302;2022-08-25T08:16:15;9.05;;;6.13;;
74375;SDS011;62812;55.188;61.302;2022-08-25T08:18:43;10.70;;;5.80;;
74375;SDS011;62812;55.188;61.302;2022-08-25T08:21:11;12.80;;;7.53;;
74375;SDS011;62812;55.188;61.302;2022-08-25T08:23:38;17.13;;;7.72;;
74375;SDS011;62812;55.188;61.302;2022-08-25T08:26:05;12.45;;;7.07;;
74375;SDS011;62812;55.188;61.302;2022-08-25T08:28:43;9.98;;;7.00;;
74375;SDS011;62812;55.188;61.302;2022-08-25T08:31:10;9.40;;;6.55;;
74375;SDS011;62812;55.188;61.302;2022-08-25T08:33:37;10.95;;;7.20;;
74375;SDS011;62812;55.188;61.302;2022-08-25T08:36:04;11.75;;;6.97;;
74375;SDS011;62812;55.188;61.302;2022-08-25T08:38:32;9.98;;;6.45;;
74375;SDS011;62812;55.188;61.302;2022-08-25T08:41:02;11.55;;;6.90;;
74375;SDS011;62812;55.188;61.302;2022-08-25T08:43:58;9.85;;;6.18;;
74375;SDS011;62812;55.188;61.302;2022-08-25T08:46:33;9.88;;;6.50;;
74375;SDS011;62812;55.188;61.302;2022-08-25T08:49:12;11.15;;;6.80;;
74375;SDS011;62812;55.188;61.302;2022-08-25T08:51:49;10.57;;;6.82;;
74375;SDS011;62812;55.188;61.302;2022-08-25T08:54:22;14.38;;;7.32;;
74375;SDS011;62812;55.188;61.302;2022-08-25T08:56:52;13.93;;;7.50;;
74375;SDS011;62812;55.188;61.302;2022-08-25T08:59:27;11.77;;;7.25;;
74375;SDS011;62812;55.188;61.302;2022-08-25T09:01:59;13.45;;;7.18;;
74375;SDS011;62812;55.188;61.302;2022-08-25T09:04:30;15.90;;;7.32;;
74375;SDS011;62812;55.188;61.302;2022-08-25T09:07:00;11.68;;;7.57;;
74375;SDS011;62812;55.188;61.302;2022-08-25T09:09:30;10.75;;;7.00;;
74375;SDS011;62812;55.188;61.302;2022-08-25T09:12:00;16.13;;;7.22;;
74375;SDS011;62812;55.188;61.302;2022-08-25T09:14:47;11.00;;;7.20;;
74375;SDS011;62812;55.188;61.302;2022-08-25T09:17:26;13.25;;;7.47;;
74375;SDS011;62812;55.188;61.302;2022-08-25T09:22:40;12.00;;;7.15;;
74375;SDS011;62812;55.188;61.302;2022-08-25T09:25:17;12.77;;;8.23;;
74375;SDS011;62812;55.188;61.302;2022-08-25T09:27:49;12.18;;;7.45;;
74375;SDS011;62812;55.188;61.302;2022-08-25T09:30:27;10.80;;;7.20;;
74375;SDS011;62812;55.188;61.302;2022-08-25T09:33:04;14.18;;;7.25;;
74375;SDS011;62812;55.188;61.302;2022-08-25T09:35:32;9.90;;;7.15;;
74375;SDS011;62812;55.188;61.302;2022-08-25T09:38:02;10.43;;;7.60;;
74375;SDS011;62812;55.188;61.302;2022-08-25T09:40:31;10.88;;;6.97;;
74375;SDS011;62812;55.188;61.302;2022-08-25T09:43:00;10.18;;;7.28;;
74375;SDS011;62812;55.188;61.302;2022-08-25T09:45:35;15.52;;;7.82;;
74375;SDS011;62812;55.188;61.302;2022-08-25T09:50:57;10.90;;;7.13;;
74375;SDS011;62812;55.188;61.302;2022-08-25T09:53:27;10.05;;;7.05;;
74375;SDS011;62812;55.188;61.302;2022-08-25T09:55:55;11.68;;;7.13;;
74375;SDS011;62812;55.188;61.302;2022-08-25T09:58:29;13.68;;;7.63;;
74375;SDS011;62812;55.188;61.302;2022-08-25T10:01:11;10.23;;;7.60;;
74375;SDS011;62812;55.188;61.302;2022-08-25T10:03:52;11.55;;;7.80;;
74375;SDS011;62812;55.188;61.302;2022-08-25T10:06:23;15.98;;;7.70;;
74375;SDS011;62812;55.188;61.302;2022-08-25T10:08:52;16.33;;;7.68;;
74375;SDS011;62812;55.188;61.302;2022-08-25T10:11:30;12.25;;;7.72;;
74375;SDS011;62812;55.188;61.302;2022-08-25T10:14:04;12.35;;;7.88;;
74375;SDS011;62812;55.188;61.302;2022-08-25T10:16:38;12.15;;;7.85;;
74375;SDS011;62812;55.188;61.302;2022-08-25T10:19:06;12.20;;;7.80;;
74375;SDS011;62812;55.188;61.302;2022-08-25T10:21:36;12.50;;;7.20;;
74375;SDS011;62812;55.188;61.302;2022-08-25T10:24:05;9.98;;;7.38;;
74375;SDS011;62812;55.188;61.302;2022-08-25T10:26:35;15.63;;;6.60;;
74375;SDS011;62812;55.188;61.302;2022-08-25T10:29:10;12.18;;;7.35;;
74375;SDS011;62812;55.188;61.302;2022-08-25T10:31:49;15.25;;;7.22;;
74375;SDS011;62812;55.188;61.302;2022-08-25T10:34:24;11.57;;;7.50;;
74375;SDS011;62812;55.188;61.302;2022-08-25T10:37:01;15.32;;;8.10;;
74375;SDS011;62812;55.188;61.302;2022-08-25T10:39:37;13.50;;;7.45;;
74375;SDS011;62812;55.188;61.302;2022-08-25T10:45:00;10.38;;;7.22;;
74375;SDS011;62812;55.188;61.302;2022-08-25T10:55:49;10.63;;;6.22;;
74375;SDS011;62812;55.188;61.302;2022-08-25T10:58:30;7.15;;;3.50;;
74375;SDS011;62812;55.188;61.302;2022-08-25T11:01:14;11.80;;;7.35;;
74375;SDS011;62812;55.188;61.302;2022-08-25T11:03:48;10.25;;;7.10;;
74375;SDS011;62812;55.188;61.302;2022-08-25T11:06:18;10.80;;;6.97;;
74375;SDS011;62812;55.188;61.302;2022-08-25T11:08:48;11.25;;;7.70;;
74375;SDS011;62812;55.188;61.302;2022-08-25T11:11:20;11.82;;;8.38;;
74375;SDS011;62812;55.188;61.302;2022-08-25T11:13:52;15.45;;;7.93;;
74375;SDS011;62812;55.188;61.302;2022-08-25T11:16:26;10.32;;;7.43;;
74375;SDS011;62812;55.188;61.302;2022-08-25T11:19:04;12.00;;;6.90;;
74375;SDS011;62812;55.188;61.302;2022-08-25T11:21:38;13.13;;;6.82;;
74375;SDS011;62812;55.188;61.302;2022-08-25T11:24:25;10.10;;;6.65;;
74375;SDS011;62812;55.188;61.302;2022-08-25T11:27:10;10.43;;;6.70;;
74375;SDS011;62812;55.188;61.302;2022-08-25T11:29:43;11.40;;;7.22;;
74375;SDS011;62812;55.188;61.302;2022-08-25T11:32:18;12.90;;;7.88;;
74375;SDS011;62812;55.188;61.302;2022-08-25T11:34:48;10.77;;;7.82;;
74375;SDS011;62812;55.188;61.302;2022-08-25T11:37:19;11.32;;;7.82;;
74375;SDS011;62812;55.188;61.302;2022-08-25T11:42:59;9.77;;;7.13;;
74375;SDS011;62812;55.188;61.302;2022-08-25T11:45:43;11.10;;;7.00;;
74375;SDS011;62812;55.188;61.302;2022-08-25T11:48:21;12.02;;;6.15;;
74375;SDS011;62812;55.188;61.302;2022-08-25T11:51:00;10.05;;;6.97;;
74375;SDS011;62812;55.188;61.302;2022-08-25T11:53:28;11.30;;;6.95;;
74375;SDS011;62812;55.188;61.302;2022-08-25T11:55:57;17.45;;;8.27;;
74375;SDS011;62812;55.188;61.302;2022-08-25T11:58:39;12.82;;;7.20;;
74375;SDS011;62812;55.188;61.302;2022-08-25T12:01:10;11.00;;;5.95;;
74375;SDS011;62812;55.188;61.302;2022-08-25T12:10:57;14.95;;;8.50;;
74375;SDS011;62812;55.188;61.302;2022-08-25T12:13:36;13.02;;;8.55;;
74375;SDS011;62812;55.188;61.302;2022-08-25T12:19:23;12.27;;;7.82;;
74375;SDS011;62812;55.188;61.302;2022-08-25T12:31:03;13.60;;;9.45;;
74375;SDS011;62812;55.188;61.302;2022-08-25T12:33:39;13.95;;;9.60;;
74375;SDS011;62812;55.188;61.302;2022-08-25T12:36:24;16.00;;;9.23;;
74375;SDS011;62812;55.188;61.302;2022-08-25T12:38:53;13.25;;;9.85;;
74375;SDS011;62812;55.188;61.302;2022-08-25T12:41:22;12.68;;;9.05;;
74375;SDS011;62812;55.188;61.302;2022-08-25T12:43:53;14.38;;;9.05;;
74375;SDS011;62812;55.188;61.302;2022-08-25T12:46:37;12.52;;;8.90;;
74375;SDS011;62812;55.188;61.302;2022-08-25T12:49:11;13.65;;;9.57;;
74375;SDS011;62812;55.188;61.302;2022-08-25T12:51:55;16.13;;;9.60;;
74375;SDS011;62812;55.188;61.302;2022-08-25T12:54:30;36.83;;;10.38;;
74375;SDS011;62812;55.188;61.302;2022-08-25T12:57:16;36.05;;;10.52;;
74375;SDS011;62812;55.188;61.302;2022-08-25T12:59:52;37.30;;;10.35;;
74375;SDS011;62812;55.188;61.302;2022-08-25T13:02:35;83.43;;;12.68;;
74375;SDS011;62812;55.188;61.302;2022-08-25T13:08:00;28.85;;;10.27;;
74375;SDS011;62812;55.188;61.302;2022-08-25T13:10:44;50.97;;;11.88;;
74375;SDS011;62812;55.188;61.302;2022-08-25T13:13:18;32.40;;;11.57;;
74375;SDS011;62812;55.188;61.302;2022-08-25T13:16:01;28.95;;;9.90;;
74375;SDS011;62812;55.188;61.302;2022-08-25T13:18:30;26.65;;;10.20;;
74375;SDS011;62812;55.188;61.302;2022-08-25T13:21:03;31.38;;;13.40;;
74375;SDS011;62812;55.188;61.302;2022-08-25T13:23:34;31.60;;;12.68;;
74375;SDS011;62812;55.188;61.302;2022-08-25T13:26:11;29.80;;;12.95;;
74375;SDS011;62812;55.188;61.302;2022-08-25T13:28:43;33.85;;;12.82;;
74375;SDS011;62812;55.188;61.302;2022-08-25T13:31:22;30.20;;;13.63;;
74375;SDS011;62812;55.188;61.302;2022-08-25T13:33:58;26.35;;;13.90;;
74375;SDS011;62812;55.188;61.302;2022-08-25T13:36:35;21.05;;;12.05;;
74375;SDS011;62812;55.188;61.302;2022-08-25T13:39:27;25.35;;;12.68;;
74375;SDS011;62812;55.188;61.302;2022-08-25T13:41:59;21.55;;;10.88;;
74375;SDS011;62812;55.188;61.302;2022-08-25T13:44:36;29.90;;;11.80;;
74375;SDS011;62812;55.188;61.302;2022-08-25T13:47:07;27.30;;;12.57;;
74375;SDS011;62812;55.188;61.302;2022-08-25T13:49:35;21.92;;;12.18;;
74375;SDS011;62812;55.188;61.302;2022-08-25T13:52:03;20.00;;;11.68;;
74375;SDS011;62812;55.188;61.302;2022-08-25T13:54:30;21.92;;;11.55;;
74375;SDS011;62812;55.188;61.302;2022-08-25T13:57:02;41.28;;;26.88;;
74375;SDS011;62812;55.188;61.302;2022-08-25T13:59:33;23.08;;;12.20;;
74375;SDS011;62812;55.188;61.302;2022-08-25T14:02:04;19.70;;;11.65;;
74375;SDS011;62812;55.188;61.302;2022-08-25T14:04:32;24.65;;;12.38;;
74375;SDS011;62812;55.188;61.302;2022-08-25T14:07:15;22.17;;;12.48;;
74375;SDS011;62812;55.188;61.302;2022-08-25T14:09:52;20.10;;;12.18;;
74375;SDS011;62812;55.188;61.302;2022-08-25T14:12:31;19.25;;;11.88;;
74375;SDS011;62812;55.188;61.302;2022-08-25T14:15:03;24.13;;;11.70;;
74375;SDS011;62812;55.188;61.302;2022-08-25T14:17:33;18.10;;;10.55;;
74375;SDS011;62812;55.188;61.302;2022-08-25T14:20:00;22.75;;;12.45;;
74375;SDS011;62812;55.188;61.302;2022-08-25T14:22:27;19.48;;;11.32;;
74375;SDS011;62812;55.188;61.302;2022-08-25T14:24:53;25.30;;;13.50;;
74375;SDS011;62812;55.188;61.302;2022-08-25T14:27:20;18.05;;;11.95;;
74375;SDS011;62812;55.188;61.302;2022-08-25T14:29:47;21.50;;;12.32;;
74375;SDS011;62812;55.188;61.302;2022-08-25T14:32:15;24.65;;;13.30;;
74375;SDS011;62812;55.188;61.302;2022-08-25T14:34:42;20.83;;;11.73;;
74375;SDS011;62812;55.188;61.302;2022-08-25T14:37:10;19.67;;;12.23;;
74375;SDS011;62812;55.188;61.302;2022-08-25T14:39:39;18.10;;;11.23;;
74375;SDS011;62812;55.188;61.302;2022-08-25T14:42:06;18.98;;;11.70;;
74375;SDS011;62812;55.188;61.302;2022-08-25T14:44:33;22.95;;;12.15;;
74375;SDS011;62812;55.188;61.302;2022-08-25T14:46:59;30.77;;;13.93;;
74375;SDS011;62812;55.188;61.302;2022-08-25T14:49:29;27.52;;;14.45;;
74375;SDS011;62812;55.188;61.302;2022-08-25T14:51:59;31.15;;;17.30;;
74375;SDS011;62812;55.188;61.302;2022-08-25T14:54:31;46.42;;;29.10;;
74375;SDS011;62812;55.188;61.302;2022-08-25T14:56:58;47.47;;;25.52;;
74375;SDS011;62812;55.188;61.302;2022-08-25T14:59:24;41.53;;;25.20;;
74375;SDS011;62812;55.188;61.302;2022-08-25T15:01:51;39.20;;;23.42;;
74375;SDS011;62812;55.188;61.302;2022-08-25T15:04:18;35.95;;;21.45;;
74375;SDS011;62812;55.188;61.302;2022-08-25T15:06:48;41.28;;;21.70;;
74375;SDS011;62812;55.188;61.302;2022-08-25T15:09:18;32.92;;;18.95;;
74375;SDS011;62812;55.188;61.302;2022-08-25T15:11:48;39.40;;;19.05;;
74375;SDS011;62812;55.188;61.302;2022-08-25T15:14:16;34.20;;;19.95;;
74375;SDS011;62812;55.188;61.302;2022-08-25T15:16:45;45.83;;;25.48;;
74375;SDS011;62812;55.188;61.302;2022-08-25T15:19:14;32.63;;;20.60;;
74375;SDS011;62812;55.188;61.302;2022-08-25T15:21:42;41.72;;;22.08;;
74375;SDS011;62812;55.188;61.302;2022-08-25T15:24:12;29.60;;;18.30;;
74375;SDS011;62812;55.188;61.302;2022-08-25T15:26:39;33.53;;;17.95;;
74375;SDS011;62812;55.188;61.302;2022-08-25T15:29:09;31.00;;;18.73;;
74375;SDS011;62812;55.188;61.302;2022-08-25T15:31:35;27.50;;;18.27;;